YXCH weather

Cherbourg Hospital Helipad
Cherbourg, Queensland, Australia

Public forecast

Using degrees Celsius for public forecast. Weather courtesy of forecast.io.

METAR (pilot weather report)

Report is more than 2 hours old.

Closest report is Kingaroy Airport, 18.5 nm (34.2 km) SSW. Retrieved 2019/04/24 16:00 UTC (5 hours ago):

YKRY 241600Z AUTO 14007KT 9999 // BKN017 17/15 Q1020

TAF (pilot weather forecast)

Forecast is more than 6 hours old.

Closest forecast is Brisbane International Airport, 90.4 nm (167.3 km) SE. Retrieved 2019/04/24 12:00 UTC (9 hours ago):

TAF YBBN 241117Z 2412/2518 20006KT 9999 -SHRA SCT025 FM250000 11010KT 9999 SCT030 BKN090 FM250100 08010KT 9999 SCT035 BKN090 FM250800 12008KT 9999 SCT035 FM251200 20005KT 9999 FEW030